sensor_id;sensor_type;location;lat;lon;timestamp;temperature;humidity
32097;DHT22;18610;49.916;8.284;2022-10-16T00:01:52;15.10;99.90
32097;DHT22;18610;49.916;8.284;2022-10-16T00:04:19;15.10;99.90
32097;DHT22;18610;49.916;8.284;2022-10-16T00:06:46;15.10;99.90
32097;DHT22;18610;49.916;8.284;2022-10-16T00:09:13;15.10;99.90
32097;DHT22;18610;49.916;8.284;2022-10-16T00:11:40;15.10;99.90
32097;DHT22;18610;49.916;8.284;2022-10-16T00:14:11;15.10;99.90
32097;DHT22;18610;49.916;8.284;2022-10-16T00:16:38;15.10;99.90
32097;DHT22;18610;49.916;8.284;2022-10-16T00:19:05;15.10;99.90
32097;DHT22;18610;49.916;8.284;2022-10-16T00:21:32;15.10;99.90
32097;DHT22;18610;49.916;8.284;2022-10-16T00:24:02;15.10;99.90
32097;DHT22;18610;49.916;8.284;2022-10-16T00:26:31;15.20;99.90
32097;DHT22;18610;49.916;8.284;2022-10-16T00:28:58;15.10;99.90
32097;DHT22;18610;49.916;8.284;2022-10-16T00:31:26;15.20;99.90
32097;DHT22;18610;49.916;8.284;2022-10-16T00:33:53;15.20;99.90
32097;DHT22;18610;49.916;8.284;2022-10-16T00:36:22;15.20;99.90
32097;DHT22;18610;49.916;8.284;2022-10-16T00:38:51;15.10;99.90
32097;DHT22;18610;49.916;8.284;2022-10-16T00:41:20;15.10;99.90
32097;DHT22;18610;49.916;8.284;2022-10-16T00:43:48;15.20;99.90
32097;DHT22;18610;49.916;8.284;2022-10-16T00:46:18;15.20;99.90
32097;DHT22;18610;49.916;8.284;2022-10-16T00:48:50;15.20;99.90
32097;DHT22;18610;49.916;8.284;2022-10-16T00:51:17;15.20;99.90
32097;DHT22;18610;49.916;8.284;2022-10-16T00:53:46;15.10;99.90
32097;DHT22;18610;49.916;8.284;2022-10-16T00:56:13;15.10;99.90
32097;DHT22;18610;49.916;8.284;2022-10-16T00:58:39;15.20;99.90
32097;DHT22;18610;49.916;8.284;2022-10-16T01:01:07;15.20;99.90
32097;DHT22;18610;49.916;8.284;2022-10-16T01:03:35;15.20;99.90
32097;DHT22;18610;49.916;8.284;2022-10-16T01:06:16;15.30;99.90
32097;DHT22;18610;49.916;8.284;2022-10-16T01:08:53;15.30;99.90
32097;DHT22;18610;49.916;8.284;2022-10-16T01:11:27;15.30;99.90
32097;DHT22;18610;49.916;8.284;2022-10-16T01:14:01;15.30;99.90
32097;DHT22;18610;49.916;8.284;2022-10-16T01:16:34;15.30;99.90
32097;DHT22;18610;49.916;8.284;2022-10-16T01:19:09;15.30;99.90
32097;DHT22;18610;49.916;8.284;2022-10-16T01:21:42;15.30;99.90
32097;DHT22;18610;49.916;8.284;2022-10-16T01:24:17;15.30;99.90
32097;DHT22;18610;49.916;8.284;2022-10-16T01:27:08;15.40;99.90
32097;DHT22;18610;49.916;8.284;2022-10-16T01:29:39;15.30;99.90
32097;DHT22;18610;49.916;8.284;2022-10-16T01:32:11;15.30;99.90
32097;DHT22;18610;49.916;8.284;2022-10-16T01:34:46;15.30;99.90
32097;DHT22;18610;49.916;8.284;2022-10-16T01:37:19;15.30;99.90
32097;DHT22;18610;49.916;8.284;2022-10-16T01:39:47;15.30;99.90
32097;DHT22;18610;49.916;8.284;2022-10-16T01:42:21;15.30;99.90
32097;DHT22;18610;49.916;8.284;2022-10-16T01:44:50;15.30;99.90
32097;DHT22;18610;49.916;8.284;2022-10-16T01:47:20;15.30;99.90
32097;DHT22;18610;49.916;8.284;2022-10-16T01:49:49;15.30;99.90
32097;DHT22;18610;49.916;8.284;2022-10-16T01:52:21;15.30;99.90
32097;DHT22;18610;49.916;8.284;2022-10-16T01:54:52;15.30;99.90
32097;DHT22;18610;49.916;8.284;2022-10-16T01:57:24;15.30;99.90
32097;DHT22;18610;49.916;8.284;2022-10-16T01:59:56;15.30;99.90
32097;DHT22;18610;49.916;8.284;2022-10-16T02:02:25;15.30;99.90
32097;DHT22;18610;49.916;8.284;2022-10-16T02:04:57;15.30;99.90
32097;DHT22;18610;49.916;8.284;2022-10-16T02:07:24;15.30;99.90
32097;DHT22;18610;49.916;8.284;2022-10-16T02:09:51;15.30;99.90
32097;DHT22;18610;49.916;8.284;2022-10-16T02:12:25;15.30;99.90
32097;DHT22;18610;49.916;8.284;2022-10-16T02:14:53;15.30;99.90
32097;DHT22;18610;49.916;8.284;2022-10-16T02:17:20;15.30;99.90
32097;DHT22;18610;49.916;8.284;2022-10-16T02:19:48;15.30;99.90
32097;DHT22;18610;49.916;8.284;2022-10-16T02:22:20;15.30;99.90
32097;DHT22;18610;49.916;8.284;2022-10-16T02:24:54;15.30;99.90
32097;DHT22;18610;49.916;8.284;2022-10-16T02:27:27;15.20;99.90
32097;DHT22;18610;49.916;8.284;2022-10-16T02:30:01;15.30;99.90
32097;DHT22;18610;49.916;8.284;2022-10-16T02:32:34;15.30;99.90
32097;DHT22;18610;49.916;8.284;2022-10-16T02:35:03;15.30;99.90
32097;DHT22;18610;49.916;8.284;2022-10-16T02:37:31;15.30;99.90
32097;DHT22;18610;49.916;8.284;2022-10-16T02:39:58;15.30;99.90
32097;DHT22;18610;49.916;8.284;2022-10-16T02:42:33;15.30;99.90
32097;DHT22;18610;49.916;8.284;2022-10-16T02:45:00;15.30;99.90
32097;DHT22;18610;49.916;8.284;2022-10-16T02:47:27;15.30;99.90
32097;DHT22;18610;49.916;8.284;2022-10-16T02:49:54;15.30;99.90
32097;DHT22;18610;49.916;8.284;2022-10-16T02:52:20;15.30;99.90
32097;DHT22;18610;49.916;8.284;2022-10-16T02:54:47;15.30;99.90
32097;DHT22;18610;49.916;8.284;2022-10-16T02:57:14;15.30;99.90
32097;DHT22;18610;49.916;8.284;2022-10-16T02:59:42;15.30;99.90
32097;DHT22;18610;49.916;8.284;2022-10-16T03:02:09;15.30;99.90
32097;DHT22;18610;49.916;8.284;2022-10-16T03:04:37;15.30;99.90
32097;DHT22;18610;49.916;8.284;2022-10-16T03:07:04;15.30;99.90
32097;DHT22;18610;49.916;8.284;2022-10-16T03:09:30;15.30;99.90
32097;DHT22;18610;49.916;8.284;2022-10-16T03:11:57;15.30;99.90
32097;DHT22;18610;49.916;8.284;2022-10-16T03:14:24;15.30;99.90
32097;DHT22;18610;49.916;8.284;2022-10-16T03:16:52;15.30;99.90
32097;DHT22;18610;49.916;8.284;2022-10-16T03:19:19;15.30;99.90
32097;DHT22;18610;49.916;8.284;2022-10-16T03:21:46;15.30;99.90
32097;DHT22;18610;49.916;8.284;2022-10-16T03:24:13;15.30;99.90
32097;DHT22;18610;49.916;8.284;2022-10-16T03:26:40;15.30;99.90
32097;DHT22;18610;49.916;8.284;2022-10-16T03:29:07;15.30;99.90
32097;DHT22;18610;49.916;8.284;2022-10-16T03:31:34;15.30;99.90
32097;DHT22;18610;49.916;8.284;2022-10-16T03:34:02;15.30;99.90
32097;DHT22;18610;49.916;8.284;2022-10-16T03:36:28;15.30;99.90
32097;DHT22;18610;49.916;8.284;2022-10-16T03:38:55;15.30;99.90
32097;DHT22;18610;49.916;8.284;2022-10-16T03:41:22;15.30;99.90
32097;DHT22;18610;49.916;8.284;2022-10-16T03:43:49;15.30;99.90
32097;DHT22;18610;49.916;8.284;2022-10-16T03:46:16;15.30;99.90
32097;DHT22;18610;49.916;8.284;2022-10-16T03:48:42;15.30;99.90
32097;DHT22;18610;49.916;8.284;2022-10-16T03:51:11;15.30;99.90
32097;DHT22;18610;49.916;8.284;2022-10-16T03:53:37;15.30;99.90
32097;DHT22;18610;49.916;8.284;2022-10-16T03:56:05;15.30;99.90
32097;DHT22;18610;49.916;8.284;2022-10-16T03:58:32;15.30;99.90
32097;DHT22;18610;49.916;8.284;2022-10-16T04:00:58;15.30;99.90
32097;DHT22;18610;49.916;8.284;2022-10-16T04:03:25;15.30;99.90
32097;DHT22;18610;49.916;8.284;2022-10-16T04:05:52;15.30;99.90
32097;DHT22;18610;49.916;8.284;2022-10-16T04:08:20;15.30;99.90
32097;DHT22;18610;49.916;8.284;2022-10-16T04:10:47;15.30;99.90
32097;DHT22;18610;49.916;8.284;2022-10-16T04:13:14;15.30;99.90
32097;DHT22;18610;49.916;8.284;2022-10-16T04:15:41;15.30;99.90
32097;DHT22;18610;49.916;8.284;2022-10-16T04:18:08;15.30;99.90
32097;DHT22;18610;49.916;8.284;2022-10-16T04:20:35;15.20;99.90
32097;DHT22;18610;49.916;8.284;2022-10-16T04:23:01;15.30;99.90
32097;DHT22;18610;49.916;8.284;2022-10-16T04:25:30;15.20;99.90
32097;DHT22;18610;49.916;8.284;2022-10-16T04:27:57;15.20;99.90
32097;DHT22;18610;49.916;8.284;2022-10-16T04:30:24;15.20;99.90
32097;DHT22;18610;49.916;8.284;2022-10-16T04:32:51;15.20;99.90
32097;DHT22;18610;49.916;8.284;2022-10-16T04:35:18;15.20;99.90
32097;DHT22;18610;49.916;8.284;2022-10-16T04:37:45;15.20;99.90
32097;DHT22;18610;49.916;8.284;2022-10-16T04:40:13;15.20;99.90
32097;DHT22;18610;49.916;8.284;2022-10-16T04:42:41;15.20;99.90
32097;DHT22;18610;49.916;8.284;2022-10-16T04:45:08;15.20;99.90
32097;DHT22;18610;49.916;8.284;2022-10-16T04:47:35;15.20;99.90
32097;DHT22;18610;49.916;8.284;2022-10-16T04:50:02;15.20;99.90
32097;DHT22;18610;49.916;8.284;2022-10-16T04:52:29;15.20;99.90
32097;DHT22;18610;49.916;8.284;2022-10-16T04:54:57;15.20;99.90
32097;DHT22;18610;49.916;8.284;2022-10-16T04:57:26;15.20;99.90
32097;DHT22;18610;49.916;8.284;2022-10-16T04:59:54;15.10;99.90
32097;DHT22;18610;49.916;8.284;2022-10-16T05:02:21;15.10;99.90
32097;DHT22;18610;49.916;8.284;2022-10-16T05:04:48;15.10;99.90
32097;DHT22;18610;49.916;8.284;2022-10-16T05:07:15;15.10;99.90
32097;DHT22;18610;49.916;8.284;2022-10-16T05:09:42;15.10;99.90
32097;DHT22;18610;49.916;8.284;2022-10-16T05:12:09;15.10;99.90
32097;DHT22;18610;49.916;8.284;2022-10-16T05:14:35;15.10;99.90
32097;DHT22;18610;49.916;8.284;2022-10-16T05:17:04;15.00;99.90
32097;DHT22;18610;49.916;8.284;2022-10-16T05:19:30;15.00;99.90
32097;DHT22;18610;49.916;8.284;2022-10-16T05:21:57;15.00;99.90
32097;DHT22;18610;49.916;8.284;2022-10-16T05:24:24;15.00;99.90
32097;DHT22;18610;49.916;8.284;2022-10-16T05:26:51;15.00;99.90
32097;DHT22;18610;49.916;8.284;2022-10-16T05:29:18;14.90;99.90
32097;DHT22;18610;49.916;8.284;2022-10-16T05:31:45;15.00;99.90
32097;DHT22;18610;49.916;8.284;2022-10-16T05:34:13;14.90;99.90
32097;DHT22;18610;49.916;8.284;2022-10-16T05:36:39;14.90;99.90
32097;DHT22;18610;49.916;8.284;2022-10-16T05:39:06;14.80;99.90
32097;DHT22;18610;49.916;8.284;2022-10-16T05:41:33;14.80;99.90
32097;DHT22;18610;49.916;8.284;2022-10-16T05:44:00;14.80;99.90
32097;DHT22;18610;49.916;8.284;2022-10-16T05:46:29;14.80;99.90
32097;DHT22;18610;49.916;8.284;2022-10-16T05:48:56;14.70;99.90
32097;DHT22;18610;49.916;8.284;2022-10-16T05:51:25;14.70;99.90
32097;DHT22;18610;49.916;8.284;2022-10-16T05:53:52;14.70;99.90
32097;DHT22;18610;49.916;8.284;2022-10-16T05:56:19;14.70;99.90
32097;DHT22;18610;49.916;8.284;2022-10-16T05:58:46;14.70;99.90
32097;DHT22;18610;49.916;8.284;2022-10-16T06:01:15;14.70;99.90
32097;DHT22;18610;49.916;8.284;2022-10-16T06:03:42;14.70;99.90
32097;DHT22;18610;49.916;8.284;2022-10-16T06:06:10;14.80;99.90
32097;DHT22;18610;49.916;8.284;2022-10-16T06:08:39;14.70;99.90
32097;DHT22;18610;49.916;8.284;2022-10-16T06:11:08;14.80;99.90
32097;DHT22;18610;49.916;8.284;2022-10-16T06:13:35;14.80;99.90
32097;DHT22;18610;49.916;8.284;2022-10-16T06:16:03;14.80;99.90
32097;DHT22;18610;49.916;8.284;2022-10-16T06:18:30;14.80;99.90
32097;DHT22;18610;49.916;8.284;2022-10-16T06:20:57;14.90;99.90
32097;DHT22;18610;49.916;8.284;2022-10-16T06:23:24;14.90;99.90
32097;DHT22;18610;49.916;8.284;2022-10-16T06:25:52;15.00;99.90
32097;DHT22;18610;49.916;8.284;2022-10-16T06:28:19;14.90;99.90
32097;DHT22;18610;49.916;8.284;2022-10-16T06:30:46;15.00;99.90
32097;DHT22;18610;49.916;8.284;2022-10-16T06:33:13;15.00;99.90
32097;DHT22;18610;49.916;8.284;2022-10-16T06:35:40;15.00;99.90
32097;DHT22;18610;49.916;8.284;2022-10-16T06:38:06;15.00;99.90
32097;DHT22;18610;49.916;8.284;2022-10-16T06:40:33;15.00;99.90
32097;DHT22;18610;49.916;8.284;2022-10-16T06:43:01;15.10;99.90
32097;DHT22;18610;49.916;8.284;2022-10-16T06:45:28;15.10;99.90
32097;DHT22;18610;49.916;8.284;2022-10-16T06:47:55;15.10;99.90
32097;DHT22;18610;49.916;8.284;2022-10-16T06:50:21;15.10;99.90
32097;DHT22;18610;49.916;8.284;2022-10-16T06:52:49;15.10;99.90
32097;DHT22;18610;49.916;8.284;2022-10-16T06:55:15;15.10;99.90
32097;DHT22;18610;49.916;8.284;2022-10-16T06:57:43;15.20;99.90
32097;DHT22;18610;49.916;8.284;2022-10-16T07:00:12;15.20;99.90
32097;DHT22;18610;49.916;8.284;2022-10-16T07:02:38;15.20;99.90
32097;DHT22;18610;49.916;8.284;2022-10-16T07:05:06;15.20;99.90
32097;DHT22;18610;49.916;8.284;2022-10-16T07:07:33;15.30;99.90
32097;DHT22;18610;49.916;8.284;2022-10-16T07:09:59;15.30;99.90
32097;DHT22;18610;49.916;8.284;2022-10-16T07:12:26;15.30;99.90
32097;DHT22;18610;49.916;8.284;2022-10-16T07:14:53;15.30;99.90
32097;DHT22;18610;49.916;8.284;2022-10-16T07:17:22;15.30;99.90
32097;DHT22;18610;49.916;8.284;2022-10-16T07:19:49;15.30;99.90
32097;DHT22;18610;49.916;8.284;2022-10-16T07:22:18;15.30;99.90
32097;DHT22;18610;49.916;8.284;2022-10-16T07:24:45;15.40;99.90
32097;DHT22;18610;49.916;8.284;2022-10-16T07:27:12;15.40;99.90
32097;DHT22;18610;49.916;8.284;2022-10-16T07:29:41;15.40;99.90
32097;DHT22;18610;49.916;8.284;2022-10-16T07:32:07;15.40;99.90
32097;DHT22;18610;49.916;8.284;2022-10-16T07:34:36;15.50;99.90
32097;DHT22;18610;49.916;8.284;2022-10-16T07:37:03;15.40;99.90
32097;DHT22;18610;49.916;8.284;2022-10-16T07:39:29;15.50;99.90
32097;DHT22;18610;49.916;8.284;2022-10-16T07:41:56;15.50;99.90
32097;DHT22;18610;49.916;8.284;2022-10-16T07:44:24;15.50;99.90
32097;DHT22;18610;49.916;8.284;2022-10-16T07:46:50;15.50;99.90
32097;DHT22;18610;49.916;8.284;2022-10-16T07:49:17;15.50;99.90
32097;DHT22;18610;49.916;8.284;2022-10-16T07:51:45;15.50;99.90
32097;DHT22;18610;49.916;8.284;2022-10-16T07:54:12;15.60;99.90
32097;DHT22;18610;49.916;8.284;2022-10-16T07:56:39;15.60;99.90
32097;DHT22;18610;49.916;8.284;2022-10-16T07:59:06;15.60;99.90
32097;DHT22;18610;49.916;8.284;2022-10-16T08:01:33;15.70;99.90
32097;DHT22;18610;49.916;8.284;2022-10-16T08:04:00;15.70;99.90
32097;DHT22;18610;49.916;8.284;2022-10-16T08:06:26;15.80;99.90
32097;DHT22;18610;49.916;8.284;2022-10-16T08:08:55;15.80;99.90
32097;DHT22;18610;49.916;8.284;2022-10-16T08:11:22;15.90;99.90
32097;DHT22;18610;49.916;8.284;2022-10-16T08:13:49;15.90;99.90
32097;DHT22;18610;49.916;8.284;2022-10-16T08:16:16;15.90;99.90
32097;DHT22;18610;49.916;8.284;2022-10-16T08:18:43;15.90;99.90
32097;DHT22;18610;49.916;8.284;2022-10-16T08:21:13;15.90;99.90
32097;DHT22;18610;49.916;8.284;2022-10-16T08:23:40;15.90;99.90
32097;DHT22;18610;49.916;8.284;2022-10-16T08:26:10;15.90;99.90
32097;DHT22;18610;49.916;8.284;2022-10-16T08:28:38;15.90;99.90
32097;DHT22;18610;49.916;8.284;2022-10-16T08:31:09;16.00;99.90
32097;DHT22;18610;49.916;8.284;2022-10-16T08:33:38;16.00;99.90
32097;DHT22;18610;49.916;8.284;2022-10-16T08:36:07;16.00;99.90
32097;DHT22;18610;49.916;8.284;2022-10-16T08:38:34;16.00;99.90
32097;DHT22;18610;49.916;8.284;2022-10-16T08:41:15;16.00;99.90
32097;DHT22;18610;49.916;8.284;2022-10-16T08:44:00;16.10;99.90
32097;DHT22;18610;49.916;8.284;2022-10-16T08:46:41;16.10;99.90
32097;DHT22;18610;49.916;8.284;2022-10-16T08:49:13;16.20;99.90
32097;DHT22;18610;49.916;8.284;2022-10-16T08:51:41;16.30;99.90
32097;DHT22;18610;49.916;8.284;2022-10-16T08:54:21;16.30;99.90
32097;DHT22;18610;49.916;8.284;2022-10-16T08:56:50;16.40;99.90
32097;DHT22;18610;49.916;8.284;2022-10-16T08:59:18;16.40;99.90
32097;DHT22;18610;49.916;8.284;2022-10-16T09:01:46;16.40;99.90
32097;DHT22;18610;49.916;8.284;2022-10-16T09:04:42;16.40;99.90
32097;DHT22;18610;49.916;8.284;2022-10-16T09:07:15;16.40;99.90
32097;DHT22;18610;49.916;8.284;2022-10-16T09:10:05;16.40;99.90
32097;DHT22;18610;49.916;8.284;2022-10-16T09:12:43;16.50;99.90
32097;DHT22;18610;49.916;8.284;2022-10-16T09:15:23;16.60;99.90
32097;DHT22;18610;49.916;8.284;2022-10-16T09:17:56;16.70;99.90
32097;DHT22;18610;49.916;8.284;2022-10-16T09:20:38;16.80;99.90
32097;DHT22;18610;49.916;8.284;2022-10-16T09:23:14;16.90;99.90
32097;DHT22;18610;49.916;8.284;2022-10-16T09:25:45;17.10;99.90
32097;DHT22;18610;49.916;8.284;2022-10-16T09:28:15;17.30;99.90
32097;DHT22;18610;49.916;8.284;2022-10-16T09:30:42;17.40;99.90
32097;DHT22;18610;49.916;8.284;2022-10-16T09:33:10;17.50;99.90
32097;DHT22;18610;49.916;8.284;2022-10-16T09:35:39;17.60;99.90
32097;DHT22;18610;49.916;8.284;2022-10-16T09:38:07;17.70;99.90
32097;DHT22;18610;49.916;8.284;2022-10-16T09:40:36;17.80;99.90
32097;DHT22;18610;49.916;8.284;2022-10-16T09:43:21;17.90;99.90
32097;DHT22;18610;49.916;8.284;2022-10-16T09:45:58;18.00;99.90
32097;DHT22;18610;49.916;8.284;2022-10-16T09:48:27;18.00;99.90
32097;DHT22;18610;49.916;8.284;2022-10-16T09:50:59;18.00;99.90
32097;DHT22;18610;49.916;8.284;2022-10-16T09:53:37;18.10;99.90
32097;DHT22;18610;49.916;8.284;2022-10-16T09:56:05;18.10;99.90
32097;DHT22;18610;49.916;8.284;2022-10-16T09:58:33;18.10;99.90
32097;DHT22;18610;49.916;8.284;2022-10-16T10:01:01;18.10;99.90
32097;DHT22;18610;49.916;8.284;2022-10-16T10:03:35;18.00;99.90
32097;DHT22;18610;49.916;8.284;2022-10-16T10:06:13;18.00;99.90
32097;DHT22;18610;49.916;8.284;2022-10-16T10:08:41;18.00;99.90
32097;DHT22;18610;49.916;8.284;2022-10-16T10:11:08;17.90;99.90
32097;DHT22;18610;49.916;8.284;2022-10-16T10:13:36;17.90;99.90
32097;DHT22;18610;49.916;8.284;2022-10-16T10:16:03;18.00;99.90
32097;DHT22;18610;49.916;8.284;2022-10-16T10:18:30;18.10;99.90
32097;DHT22;18610;49.916;8.284;2022-10-16T10:20:58;18.20;99.90
32097;DHT22;18610;49.916;8.284;2022-10-16T10:23:27;18.30;99.90
32097;DHT22;18610;49.916;8.284;2022-10-16T10:25:58;18.40;99.90
32097;DHT22;18610;49.916;8.284;2022-10-16T10:28:46;18.50;99.90
32097;DHT22;18610;49.916;8.284;2022-10-16T10:31:19;18.50;99.90
32097;DHT22;18610;49.916;8.284;2022-10-16T10:33:54;18.70;99.90
32097;DHT22;18610;49.916;8.284;2022-10-16T10:36:27;18.80;99.90
32097;DHT22;18610;49.916;8.284;2022-10-16T10:38:58;18.90;99.90
32097;DHT22;18610;49.916;8.284;2022-10-16T10:41:57;19.00;99.90
32097;DHT22;18610;49.916;8.284;2022-10-16T10:44:47;19.10;99.90
32097;DHT22;18610;49.916;8.284;2022-10-16T10:47:26;19.20;99.90
32097;DHT22;18610;49.916;8.284;2022-10-16T10:50:04;19.20;99.90
32097;DHT22;18610;49.916;8.284;2022-10-16T10:52:47;19.30;99.90
32097;DHT22;18610;49.916;8.284;2022-10-16T10:55:24;19.30;99.90
32097;DHT22;18610;49.916;8.284;2022-10-16T10:58:14;19.20;99.90
32097;DHT22;18610;49.916;8.284;2022-10-16T11:00:51;19.20;99.90
32097;DHT22;18610;49.916;8.284;2022-10-16T11:03:35;19.10;99.90
32097;DHT22;18610;49.916;8.284;2022-10-16T11:06:10;19.10;99.90
32097;DHT22;18610;49.916;8.284;2022-10-16T11:08:42;19.00;99.90
32097;DHT22;18610;49.916;8.284;2022-10-16T11:11:15;19.00;99.90
32097;DHT22;18610;49.916;8.284;2022-10-16T11:13:47;18.90;99.90
32097;DHT22;18610;49.916;8.284;2022-10-16T11:16:21;18.90;99.90
32097;DHT22;18610;49.916;8.284;2022-10-16T11:18:55;19.00;99.90
32097;DHT22;18610;49.916;8.284;2022-10-16T11:21:23;19.00;99.90
32097;DHT22;18610;49.916;8.284;2022-10-16T11:23:55;19.10;99.90
32097;DHT22;18610;49.916;8.284;2022-10-16T11:26:26;19.30;99.90
32097;DHT22;18610;49.916;8.284;2022-10-16T11:28:55;19.50;99.90
32097;DHT22;18610;49.916;8.284;2022-10-16T11:31:29;19.70;99.90
32097;DHT22;18610;49.916;8.284;2022-10-16T11:34:02;19.80;99.90
32097;DHT22;18610;49.916;8.284;2022-10-16T11:36:35;19.90;99.90
32097;DHT22;18610;49.916;8.284;2022-10-16T11:39:16;20.00;99.90
32097;DHT22;18610;49.916;8.284;2022-10-16T11:41:48;20.10;99.90
32097;DHT22;18610;49.916;8.284;2022-10-16T11:44:26;20.10;99.90
32097;DHT22;18610;49.916;8.284;2022-10-16T11:47:06;20.20;99.90
32097;DHT22;18610;49.916;8.284;2022-10-16T11:49:36;20.30;99.90
32097;DHT22;18610;49.916;8.284;2022-10-16T11:52:11;20.60;99.90
32097;DHT22;18610;49.916;8.284;2022-10-16T11:54:45;20.90;99.90
32097;DHT22;18610;49.916;8.284;2022-10-16T11:57:19;21.10;99.90
32097;DHT22;18610;49.916;8.284;2022-10-16T11:59:51;21.10;99.90
32097;DHT22;18610;49.916;8.284;2022-10-16T12:02:44;21.20;99.90
32097;DHT22;18610;49.916;8.284;2022-10-16T12:05:23;21.60;99.90
32097;DHT22;18610;49.916;8.284;2022-10-16T12:07:56;21.90;99.90
32097;DHT22;18610;49.916;8.284;2022-10-16T12:10:28;22.20;99.90
32097;DHT22;18610;49.916;8.284;2022-10-16T12:12:57;22.50;99.90
32097;DHT22;18610;49.916;8.284;2022-10-16T12:15:26;22.80;99.90
32097;DHT22;18610;49.916;8.284;2022-10-16T12:17:55;23.00;99.90
32097;DHT22;18610;49.916;8.284;2022-10-16T12:20:25;23.00;99.90
32097;DHT22;18610;49.916;8.284;2022-10-16T12:22:54;23.00;99.90
32097;DHT22;18610;49.916;8.284;2022-10-16T12:25:25;23.20;99.90
32097;DHT22;18610;49.916;8.284;2022-10-16T12:27:59;23.40;99.90
32097;DHT22;18610;49.916;8.284;2022-10-16T12:30:28;23.90;99.90
32097;DHT22;18610;49.916;8.284;2022-10-16T12:32:58;24.40;99.90
32097;DHT22;18610;49.916;8.284;2022-10-16T12:35:27;24.50;99.90
32097;DHT22;18610;49.916;8.284;2022-10-16T12:38:06;24.40;99.90
32097;DHT22;18610;49.916;8.284;2022-10-16T12:40:35;24.20;99.90
32097;DHT22;18610;49.916;8.284;2022-10-16T12:43:38;23.80;99.90
32097;DHT22;18610;49.916;8.284;2022-10-16T12:46:23;23.60;99.90
32097;DHT22;18610;49.916;8.284;2022-10-16T12:48:51;23.20;99.90
32097;DHT22;18610;49.916;8.284;2022-10-16T12:51:23;23.00;99.90
32097;DHT22;18610;49.916;8.284;2022-10-16T12:54:01;22.80;99.90
32097;DHT22;18610;49.916;8.284;2022-10-16T12:56:37;22.60;99.90
32097;DHT22;18610;49.916;8.284;2022-10-16T12:59:13;22.40;99.90
32097;DHT22;18610;49.916;8.284;2022-10-16T13:01:56;22.30;99.90
32097;DHT22;18610;49.916;8.284;2022-10-16T13:04:40;22.10;99.90
32097;DHT22;18610;49.916;8.284;2022-10-16T13:07:31;22.00;99.90
32097;DHT22;18610;49.916;8.284;2022-10-16T13:10:09;21.90;99.90
32097;DHT22;18610;49.916;8.284;2022-10-16T13:13:02;21.80;99.90
32097;DHT22;18610;49.916;8.284;2022-10-16T13:15:53;21.80;99.90
32097;DHT22;18610;49.916;8.284;2022-10-16T13:18:28;21.90;99.90
32097;DHT22;18610;49.916;8.284;2022-10-16T13:21:08;21.80;99.90
32097;DHT22;18610;49.916;8.284;2022-10-16T13:23:44;21.80;99.90
32097;DHT22;18610;49.916;8.284;2022-10-16T13:26:20;21.80;99.90
32097;DHT22;18610;49.916;8.284;2022-10-16T13:28:50;21.70;99.90
32097;DHT22;18610;49.916;8.284;2022-10-16T13:31:20;21.70;99.90
32097;DHT22;18610;49.916;8.284;2022-10-16T13:33:50;21.60;99.90
32097;DHT22;18610;49.916;8.284;2022-10-16T13:36:23;21.60;99.90
32097;DHT22;18610;49.916;8.284;2022-10-16T13:39:01;21.50;99.90
32097;DHT22;18610;49.916;8.284;2022-10-16T13:41:31;21.40;99.90
32097;DHT22;18610;49.916;8.284;2022-10-16T13:43:58;21.40;99.90
32097;DHT22;18610;49.916;8.284;2022-10-16T13:46:25;21.30;99.90
32097;DHT22;18610;49.916;8.284;2022-10-16T13:48:59;21.30;99.90
32097;DHT22;18610;49.916;8.284;2022-10-16T13:51:30;21.30;99.90
32097;DHT22;18610;49.916;8.284;2022-10-16T13:53:57;21.20;99.90
32097;DHT22;18610;49.916;8.284;2022-10-16T13:56:27;21.10;99.90
32097;DHT22;18610;49.916;8.284;2022-10-16T13:59:01;21.10;99.90
32097;DHT22;18610;49.916;8.284;2022-10-16T14:01:30;21.10;99.90
32097;DHT22;18610;49.916;8.284;2022-10-16T14:04:02;21.10;99.90
32097;DHT22;18610;49.916;8.284;2022-10-16T14:06:32;21.10;99.90
32097;DHT22;18610;49.916;8.284;2022-10-16T14:09:01;21.10;99.90
32097;DHT22;18610;49.916;8.284;2022-10-16T14:11:31;21.10;99.90
32097;DHT22;18610;49.916;8.284;2022-10-16T14:13:59;21.10;99.90
32097;DHT22;18610;49.916;8.284;2022-10-16T14:16:29;21.10;99.90
32097;DHT22;18610;49.916;8.284;2022-10-16T14:18:57;21.10;99.90
32097;DHT22;18610;49.916;8.284;2022-10-16T14:21:26;21.20;99.90
32097;DHT22;18610;49.916;8.284;2022-10-16T14:23:55;21.20;99.90
32097;DHT22;18610;49.916;8.284;2022-10-16T14:26:24;21.20;99.90
32097;DHT22;18610;49.916;8.284;2022-10-16T14:29:08;21.10;99.90
32097;DHT22;18610;49.916;8.284;2022-10-16T14:31:37;21.10;99.90
32097;DHT22;18610;49.916;8.284;2022-10-16T14:34:22;21.00;99.90
32097;DHT22;18610;49.916;8.284;2022-10-16T14:36:49;20.90;99.90
32097;DHT22;18610;49.916;8.284;2022-10-16T14:39:20;20.90;99.90
32097;DHT22;18610;49.916;8.284;2022-10-16T14:41:49;20.80;99.90
32097;DHT22;18610;49.916;8.284;2022-10-16T14:44:18;20.80;99.90
32097;DHT22;18610;49.916;8.284;2022-10-16T14:46:45;20.80;99.90
32097;DHT22;18610;49.916;8.284;2022-10-16T14:49:16;20.80;99.90
32097;DHT22;18610;49.916;8.284;2022-10-16T14:51:44;20.90;99.90
32097;DHT22;18610;49.916;8.284;2022-10-16T14:54:12;21.10;99.90
32097;DHT22;18610;49.916;8.284;2022-10-16T14:56:46;21.20;99.90
32097;DHT22;18610;49.916;8.284;2022-10-16T14:59:16;21.30;99.90
32097;DHT22;18610;49.916;8.284;2022-10-16T15:01:44;21.30;99.90
32097;DHT22;18610;49.916;8.284;2022-10-16T15:04:12;21.20;99.90
32097;DHT22;18610;49.916;8.284;2022-10-16T15:06:40;21.20;99.90
32097;DHT22;18610;49.916;8.284;2022-10-16T15:09:07;21.10;99.90
32097;DHT22;18610;49.916;8.284;2022-10-16T15:11:34;21.10;99.90
32097;DHT22;18610;49.916;8.284;2022-10-16T15:14:03;21.00;99.90
32097;DHT22;18610;49.916;8.284;2022-10-16T15:16:31;21.00;99.90
32097;DHT22;18610;49.916;8.284;2022-10-16T15:18:58;20.90;99.90
32097;DHT22;18610;49.916;8.284;2022-10-16T15:21:28;20.90;99.90
32097;DHT22;18610;49.916;8.284;2022-10-16T15:23:55;20.90;99.90
32097;DHT22;18610;49.916;8.284;2022-10-16T15:26:23;20.90;99.90
32097;DHT22;18610;49.916;8.284;2022-10-16T15:28:50;20.80;99.90
32097;DHT22;18610;49.916;8.284;2022-10-16T15:31:18;20.80;99.90
32097;DHT22;18610;49.916;8.284;2022-10-16T15:33:49;20.80;99.90
32097;DHT22;18610;49.916;8.284;2022-10-16T15:36:25;20.70;99.90
32097;DHT22;18610;49.916;8.284;2022-10-16T15:38:52;20.60;99.90
32097;DHT22;18610;49.916;8.284;2022-10-16T15:41:19;20.60;99.90
32097;DHT22;18610;49.916;8.284;2022-10-16T15:43:48;20.60;99.90
32097;DHT22;18610;49.916;8.284;2022-10-16T15:46:15;20.50;99.90
32097;DHT22;18610;49.916;8.284;2022-10-16T15:48:44;20.50;99.90
32097;DHT22;18610;49.916;8.284;2022-10-16T15:51:11;20.50;99.90